sensor_id;sensor_type;location;lat;lon;timestamp;temperature;humidity
11536;DHT22;5824;49.336;8.652;2024-03-06T00:00:47;6.90;1.00
11536;DHT22;5824;49.336;8.652;2024-03-06T00:03:12;6.90;1.00
11536;DHT22;5824;49.336;8.652;2024-03-06T00:05:38;6.90;1.00
11536;DHT22;5824;49.336;8.652;2024-03-06T00:08:03;7.00;1.00
11536;DHT22;5824;49.336;8.652;2024-03-06T00:10:29;7.00;1.00
11536;DHT22;5824;49.336;8.652;2024-03-06T00:12:55;7.00;1.00
11536;DHT22;5824;49.336;8.652;2024-03-06T00:15:20;7.00;1.00
11536;DHT22;5824;49.336;8.652;2024-03-06T00:17:46;7.00;1.00
11536;DHT22;5824;49.336;8.652;2024-03-06T00:20:12;7.00;1.00
11536;DHT22;5824;49.336;8.652;2024-03-06T00:22:37;7.10;1.00
11536;DHT22;5824;49.336;8.652;2024-03-06T00:25:03;7.10;1.00
11536;DHT22;5824;49.336;8.652;2024-03-06T00:27:29;7.20;1.00
11536;DHT22;5824;49.336;8.652;2024-03-06T00:29:54;7.20;1.00
11536;DHT22;5824;49.336;8.652;2024-03-06T00:32:20;6.80;1.00
11536;DHT22;5824;49.336;8.652;2024-03-06T00:34:45;7.20;1.00
11536;DHT22;5824;49.336;8.652;2024-03-06T00:37:11;7.20;1.00
11536;DHT22;5824;49.336;8.652;2024-03-06T00:39:36;7.10;1.00
11536;DHT22;5824;49.336;8.652;2024-03-06T00:42:02;7.10;1.00
11536;DHT22;5824;49.336;8.652;2024-03-06T00:44:28;7.10;1.00
11536;DHT22;5824;49.336;8.652;2024-03-06T00:46:53;7.10;1.00
11536;DHT22;5824;49.336;8.652;2024-03-06T00:49:19;7.10;1.00
11536;DHT22;5824;49.336;8.652;2024-03-06T00:51:44;7.10;1.00
11536;DHT22;5824;49.336;8.652;2024-03-06T00:54:10;7.00;1.00
11536;DHT22;5824;49.336;8.652;2024-03-06T00:56:38;7.00;1.00
11536;DHT22;5824;49.336;8.652;2024-03-06T00:59:04;7.00;1.00
11536;DHT22;5824;49.336;8.652;2024-03-06T01:01:30;7.00;1.00
11536;DHT22;5824;49.336;8.652;2024-03-06T01:03:55;6.90;1.00
11536;DHT22;5824;49.336;8.652;2024-03-06T01:06:21;6.80;1.00
11536;DHT22;5824;49.336;8.652;2024-03-06T01:08:46;6.80;1.00
11536;DHT22;5824;49.336;8.652;2024-03-06T01:11:12;6.70;1.00
11536;DHT22;5824;49.336;8.652;2024-03-06T01:13:40;6.60;1.00
11536;DHT22;5824;49.336;8.652;2024-03-06T01:16:06;6.60;1.00
11536;DHT22;5824;49.336;8.652;2024-03-06T01:18:31;6.60;1.00
11536;DHT22;5824;49.336;8.652;2024-03-06T01:20:57;6.60;1.00
11536;DHT22;5824;49.336;8.652;2024-03-06T01:23:22;6.60;1.00
11536;DHT22;5824;49.336;8.652;2024-03-06T01:25:48;6.60;1.00
11536;DHT22;5824;49.336;8.652;2024-03-06T01:28:13;6.50;1.00
11536;DHT22;5824;49.336;8.652;2024-03-06T01:30:39;6.50;1.00
11536;DHT22;5824;49.336;8.652;2024-03-06T01:33:04;6.50;1.00
11536;DHT22;5824;49.336;8.652;2024-03-06T01:35:30;6.30;1.00
11536;DHT22;5824;49.336;8.652;2024-03-06T01:37:56;6.20;1.00
11536;DHT22;5824;49.336;8.652;2024-03-06T01:40:21;6.30;1.00
11536;DHT22;5824;49.336;8.652;2024-03-06T01:42:47;6.20;1.00
11536;DHT22;5824;49.336;8.652;2024-03-06T01:45:16;6.30;1.00
11536;DHT22;5824;49.336;8.652;2024-03-06T01:47:42;6.30;1.00
11536;DHT22;5824;49.336;8.652;2024-03-06T01:50:08;6.30;1.00
11536;DHT22;5824;49.336;8.652;2024-03-06T01:52:36;6.30;1.00
11536;DHT22;5824;49.336;8.652;2024-03-06T01:55:03;6.20;1.00
11536;DHT22;5824;49.336;8.652;2024-03-06T01:57:30;6.20;1.00
11536;DHT22;5824;49.336;8.652;2024-03-06T01:59:56;6.30;1.00
11536;DHT22;5824;49.336;8.652;2024-03-06T02:02:22;6.30;1.00
11536;DHT22;5824;49.336;8.652;2024-03-06T02:04:47;6.30;1.00
11536;DHT22;5824;49.336;8.652;2024-03-06T02:07:14;6.30;1.00
11536;DHT22;5824;49.336;8.652;2024-03-06T02:09:41;6.30;1.00
11536;DHT22;5824;49.336;8.652;2024-03-06T02:12:07;6.30;1.00
11536;DHT22;5824;49.336;8.652;2024-03-06T02:14:36;6.60;1.00
11536;DHT22;5824;49.336;8.652;2024-03-06T02:17:01;6.30;1.00
11536;DHT22;5824;49.336;8.652;2024-03-06T02:19:38;6.40;1.00
11536;DHT22;5824;49.336;8.652;2024-03-06T02:22:03;6.40;1.00
11536;DHT22;5824;49.336;8.652;2024-03-06T02:24:29;6.20;1.00
11536;DHT22;5824;49.336;8.652;2024-03-06T02:26:56;6.20;1.00
11536;DHT22;5824;49.336;8.652;2024-03-06T02:29:23;6.20;1.00
11536;DHT22;5824;49.336;8.652;2024-03-06T02:31:49;6.20;1.00
11536;DHT22;5824;49.336;8.652;2024-03-06T02:34:14;6.10;1.00
11536;DHT22;5824;49.336;8.652;2024-03-06T02:36:40;6.20;1.00
11536;DHT22;5824;49.336;8.652;2024-03-06T02:39:05;6.50;1.00
11536;DHT22;5824;49.336;8.652;2024-03-06T02:41:35;6.20;1.00
11536;DHT22;5824;49.336;8.652;2024-03-06T02:44:01;6.10;1.00
11536;DHT22;5824;49.336;8.652;2024-03-06T02:46:27;6.30;1.00
11536;DHT22;5824;49.336;8.652;2024-03-06T02:48:53;6.10;1.00
11536;DHT22;5824;49.336;8.652;2024-03-06T02:51:20;6.10;1.00
11536;DHT22;5824;49.336;8.652;2024-03-06T02:53:45;6.00;1.00
11536;DHT22;5824;49.336;8.652;2024-03-06T02:56:18;6.00;1.00
11536;DHT22;5824;49.336;8.652;2024-03-06T02:58:43;6.30;1.00
11536;DHT22;5824;49.336;8.652;2024-03-06T03:01:09;6.00;1.00
11536;DHT22;5824;49.336;8.652;2024-03-06T03:03:35;6.00;1.00
11536;DHT22;5824;49.336;8.652;2024-03-06T03:06:01;6.10;1.00
11536;DHT22;5824;49.336;8.652;2024-03-06T03:08:27;6.00;1.00
11536;DHT22;5824;49.336;8.652;2024-03-06T03:10:52;6.00;1.00
11536;DHT22;5824;49.336;8.652;2024-03-06T03:13:18;6.00;1.00
11536;DHT22;5824;49.336;8.652;2024-03-06T03:15:43;6.00;1.00
11536;DHT22;5824;49.336;8.652;2024-03-06T03:18:09;6.00;1.00
11536;DHT22;5824;49.336;8.652;2024-03-06T03:20:34;6.40;1.00
11536;DHT22;5824;49.336;8.652;2024-03-06T03:23:01;6.00;1.00
11536;DHT22;5824;49.336;8.652;2024-03-06T03:25:27;6.00;1.00
11536;DHT22;5824;49.336;8.652;2024-03-06T03:27:52;5.90;1.00
11536;DHT22;5824;49.336;8.652;2024-03-06T03:30:18;5.90;1.00
11536;DHT22;5824;49.336;8.652;2024-03-06T03:32:47;6.00;1.00
11536;DHT22;5824;49.336;8.652;2024-03-06T03:35:12;5.90;1.00
11536;DHT22;5824;49.336;8.652;2024-03-06T03:37:38;6.00;1.00
11536;DHT22;5824;49.336;8.652;2024-03-06T03:40:05;6.30;1.00
11536;DHT22;5824;49.336;8.652;2024-03-06T03:42:30;6.00;1.00
11536;DHT22;5824;49.336;8.652;2024-03-06T03:44:56;6.00;1.00
11536;DHT22;5824;49.336;8.652;2024-03-06T03:47:21;6.10;1.00
11536;DHT22;5824;49.336;8.652;2024-03-06T03:49:47;6.10;1.00
11536;DHT22;5824;49.336;8.652;2024-03-06T03:52:13;6.00;1.00
11536;DHT22;5824;49.336;8.652;2024-03-06T03:54:39;6.20;1.00
11536;DHT22;5824;49.336;8.652;2024-03-06T03:57:05;6.10;1.00
11536;DHT22;5824;49.336;8.652;2024-03-06T03:59:32;6.10;1.00
11536;DHT22;5824;49.336;8.652;2024-03-06T04:01:57;6.30;1.00
11536;DHT22;5824;49.336;8.652;2024-03-06T04:04:23;6.10;1.00
11536;DHT22;5824;49.336;8.652;2024-03-06T04:06:49;6.10;1.00
11536;DHT22;5824;49.336;8.652;2024-03-06T04:09:14;6.10;1.00
11536;DHT22;5824;49.336;8.652;2024-03-06T04:11:40;6.10;1.00
11536;DHT22;5824;49.336;8.652;2024-03-06T04:14:06;6.00;1.00
11536;DHT22;5824;49.336;8.652;2024-03-06T04:16:32;6.00;1.00
11536;DHT22;5824;49.336;8.652;2024-03-06T04:18:57;5.90;1.00
11536;DHT22;5824;49.336;8.652;2024-03-06T04:21:23;5.90;1.00
11536;DHT22;5824;49.336;8.652;2024-03-06T04:23:49;5.90;1.00
11536;DHT22;5824;49.336;8.652;2024-03-06T04:26:14;6.00;1.00
11536;DHT22;5824;49.336;8.652;2024-03-06T04:28:40;6.00;1.00
11536;DHT22;5824;49.336;8.652;2024-03-06T04:31:06;6.10;1.00
11536;DHT22;5824;49.336;8.652;2024-03-06T04:33:31;6.30;1.00
11536;DHT22;5824;49.336;8.652;2024-03-06T04:35:57;5.90;1.00
11536;DHT22;5824;49.336;8.652;2024-03-06T04:38:22;5.80;1.00
11536;DHT22;5824;49.336;8.652;2024-03-06T04:40:48;5.70;1.00
11536;DHT22;5824;49.336;8.652;2024-03-06T04:43:13;5.80;1.00
11536;DHT22;5824;49.336;8.652;2024-03-06T04:45:39;5.90;1.00
11536;DHT22;5824;49.336;8.652;2024-03-06T04:48:05;6.00;1.00
11536;DHT22;5824;49.336;8.652;2024-03-06T04:50:31;6.10;1.00
11536;DHT22;5824;49.336;8.652;2024-03-06T04:52:56;6.10;1.00
11536;DHT22;5824;49.336;8.652;2024-03-06T04:55:22;6.20;1.00
11536;DHT22;5824;49.336;8.652;2024-03-06T04:57:48;6.30;1.00
11536;DHT22;5824;49.336;8.652;2024-03-06T05:00:14;6.10;1.00
11536;DHT22;5824;49.336;8.652;2024-03-06T05:02:40;6.20;1.00
11536;DHT22;5824;49.336;8.652;2024-03-06T05:05:07;6.10;1.00
11536;DHT22;5824;49.336;8.652;2024-03-06T05:07:33;6.20;1.00
11536;DHT22;5824;49.336;8.652;2024-03-06T05:09:59;6.40;1.00
11536;DHT22;5824;49.336;8.652;2024-03-06T05:12:25;6.20;1.00
11536;DHT22;5824;49.336;8.652;2024-03-06T05:14:52;6.30;1.00
11536;DHT22;5824;49.336;8.652;2024-03-06T05:17:18;6.30;1.00
11536;DHT22;5824;49.336;8.652;2024-03-06T05:19:44;6.30;1.00
11536;DHT22;5824;49.336;8.652;2024-03-06T05:22:10;6.30;1.00
11536;DHT22;5824;49.336;8.652;2024-03-06T05:24:39;6.30;1.00
11536;DHT22;5824;49.336;8.652;2024-03-06T05:27:05;6.30;1.00
11536;DHT22;5824;49.336;8.652;2024-03-06T05:29:30;6.20;1.00
11536;DHT22;5824;49.336;8.652;2024-03-06T05:31:56;6.20;1.00
11536;DHT22;5824;49.336;8.652;2024-03-06T05:34:22;6.10;1.00
11536;DHT22;5824;49.336;8.652;2024-03-06T05:36:48;6.10;1.00
11536;DHT22;5824;49.336;8.652;2024-03-06T05:39:14;6.10;1.00
11536;DHT22;5824;49.336;8.652;2024-03-06T05:41:39;6.10;1.00
11536;DHT22;5824;49.336;8.652;2024-03-06T05:44:05;6.10;1.00
11536;DHT22;5824;49.336;8.652;2024-03-06T05:46:31;6.00;1.00
11536;DHT22;5824;49.336;8.652;2024-03-06T05:51:22;6.20;1.00
11536;DHT22;5824;49.336;8.652;2024-03-06T05:53:48;6.30;1.00
11536;DHT22;5824;49.336;8.652;2024-03-06T05:56:13;6.30;1.00
11536;DHT22;5824;49.336;8.652;2024-03-06T05:58:39;6.00;1.00
11536;DHT22;5824;49.336;8.652;2024-03-06T06:01:04;6.20;1.00
11536;DHT22;5824;49.336;8.652;2024-03-06T06:03:30;6.20;1.00
11536;DHT22;5824;49.336;8.652;2024-03-06T06:05:56;6.20;1.00
11536;DHT22;5824;49.336;8.652;2024-03-06T06:08:22;6.30;1.00
11536;DHT22;5824;49.336;8.652;2024-03-06T06:10:47;6.40;1.00
11536;DHT22;5824;49.336;8.652;2024-03-06T06:13:13;6.50;1.00
11536;DHT22;5824;49.336;8.652;2024-03-06T06:15:40;6.30;1.00
11536;DHT22;5824;49.336;8.652;2024-03-06T06:18:05;6.40;1.00
11536;DHT22;5824;49.336;8.652;2024-03-06T06:20:31;6.50;1.00
11536;DHT22;5824;49.336;8.652;2024-03-06T06:22:57;6.50;1.00
11536;DHT22;5824;49.336;8.652;2024-03-06T06:25:23;6.50;1.00
11536;DHT22;5824;49.336;8.652;2024-03-06T06:27:48;6.50;1.00
11536;DHT22;5824;49.336;8.652;2024-03-06T06:30:15;6.60;1.00
11536;DHT22;5824;49.336;8.652;2024-03-06T06:35:08;6.70;1.00
11536;DHT22;5824;49.336;8.652;2024-03-06T06:37:34;6.80;1.00
11536;DHT22;5824;49.336;8.652;2024-03-06T06:40:00;6.80;1.00
11536;DHT22;5824;49.336;8.652;2024-03-06T06:42:28;6.90;1.00
11536;DHT22;5824;49.336;8.652;2024-03-06T06:44:54;7.10;1.00
11536;DHT22;5824;49.336;8.652;2024-03-06T06:47:19;7.10;1.00
11536;DHT22;5824;49.336;8.652;2024-03-06T06:49:45;7.20;1.00
11536;DHT22;5824;49.336;8.652;2024-03-06T06:52:11;7.30;1.00
11536;DHT22;5824;49.336;8.652;2024-03-06T06:54:36;7.40;1.00
11536;DHT22;5824;49.336;8.652;2024-03-06T06:57:02;7.50;1.00
11536;DHT22;5824;49.336;8.652;2024-03-06T06:59:28;7.50;1.00
11536;DHT22;5824;49.336;8.652;2024-03-06T07:01:54;7.60;1.00
11536;DHT22;5824;49.336;8.652;2024-03-06T07:04:19;7.70;1.00
11536;DHT22;5824;49.336;8.652;2024-03-06T07:06:46;7.80;1.00
11536;DHT22;5824;49.336;8.652;2024-03-06T07:09:12;7.80;1.00
11536;DHT22;5824;49.336;8.652;2024-03-06T07:11:37;7.80;1.00
11536;DHT22;5824;49.336;8.652;2024-03-06T07:14:03;7.90;1.00
11536;DHT22;5824;49.336;8.652;2024-03-06T07:16:28;7.90;1.00
11536;DHT22;5824;49.336;8.652;2024-03-06T07:18:54;8.00;1.00
11536;DHT22;5824;49.336;8.652;2024-03-06T07:21:19;8.00;1.00
11536;DHT22;5824;49.336;8.652;2024-03-06T07:23:45;8.00;1.00
11536;DHT22;5824;49.336;8.652;2024-03-06T07:26:10;8.10;1.00
11536;DHT22;5824;49.336;8.652;2024-03-06T07:28:36;8.00;1.00
11536;DHT22;5824;49.336;8.652;2024-03-06T07:31:03;8.00;1.00
11536;DHT22;5824;49.336;8.652;2024-03-06T07:33:28;8.20;1.00
11536;DHT22;5824;49.336;8.652;2024-03-06T07:35:54;8.20;1.00
11536;DHT22;5824;49.336;8.652;2024-03-06T07:40:46;8.10;1.00
11536;DHT22;5824;49.336;8.652;2024-03-06T07:43:11;8.20;1.00
11536;DHT22;5824;49.336;8.652;2024-03-06T07:45:37;8.30;1.00
11536;DHT22;5824;49.336;8.652;2024-03-06T07:51:24;8.30;1.00
11536;DHT22;5824;49.336;8.652;2024-03-06T07:53:50;8.30;1.00
11536;DHT22;5824;49.336;8.652;2024-03-06T07:56:16;8.40;1.00
11536;DHT22;5824;49.336;8.652;2024-03-06T07:58:41;8.50;1.00
11536;DHT22;5824;49.336;8.652;2024-03-06T08:01:07;8.50;1.00
11536;DHT22;5824;49.336;8.652;2024-03-06T08:03:33;8.60;1.00
11536;DHT22;5824;49.336;8.652;2024-03-06T08:05:59;8.70;1.00
11536;DHT22;5824;49.336;8.652;2024-03-06T08:08:25;8.90;1.00
11536;DHT22;5824;49.336;8.652;2024-03-06T08:10:51;9.10;1.00
11536;DHT22;5824;49.336;8.652;2024-03-06T08:13:16;9.10;1.00
11536;DHT22;5824;49.336;8.652;2024-03-06T08:15:44;9.30;1.00
11536;DHT22;5824;49.336;8.652;2024-03-06T08:18:10;9.40;1.00
11536;DHT22;5824;49.336;8.652;2024-03-06T08:20:36;9.40;1.00
11536;DHT22;5824;49.336;8.652;2024-03-06T08:23:02;9.40;1.00
11536;DHT22;5824;49.336;8.652;2024-03-06T08:25:28;9.30;1.00
11536;DHT22;5824;49.336;8.652;2024-03-06T08:27:53;9.20;1.00
11536;DHT22;5824;49.336;8.652;2024-03-06T08:30:19;9.10;1.00
11536;DHT22;5824;49.336;8.652;2024-03-06T08:32:45;9.20;1.00
11536;DHT22;5824;49.336;8.652;2024-03-06T08:35:12;9.30;1.00
11536;DHT22;5824;49.336;8.652;2024-03-06T08:37:39;9.40;1.00
11536;DHT22;5824;49.336;8.652;2024-03-06T08:40:05;9.50;1.00
11536;DHT22;5824;49.336;8.652;2024-03-06T08:42:30;9.70;1.00
11536;DHT22;5824;49.336;8.652;2024-03-06T08:44:57;9.70;1.00
11536;DHT22;5824;49.336;8.652;2024-03-06T08:47:22;9.80;1.00
11536;DHT22;5824;49.336;8.652;2024-03-06T08:49:48;10.00;1.00
11536;DHT22;5824;49.336;8.652;2024-03-06T08:52:14;10.00;1.00
11536;DHT22;5824;49.336;8.652;2024-03-06T08:54:42;10.20;1.00
11536;DHT22;5824;49.336;8.652;2024-03-06T08:57:08;10.30;1.00
11536;DHT22;5824;49.336;8.652;2024-03-06T08:59:34;10.40;1.00
11536;DHT22;5824;49.336;8.652;2024-03-06T09:02:12;10.40;1.00
11536;DHT22;5824;49.336;8.652;2024-03-06T09:04:40;10.30;1.00
11536;DHT22;5824;49.336;8.652;2024-03-06T09:07:05;10.20;1.00
11536;DHT22;5824;49.336;8.652;2024-03-06T09:09:31;10.30;1.00
11536;DHT22;5824;49.336;8.652;2024-03-06T09:12:02;10.30;1.00
11536;DHT22;5824;49.336;8.652;2024-03-06T09:14:29;10.50;1.00
11536;DHT22;5824;49.336;8.652;2024-03-06T09:16:55;10.60;1.00
11536;DHT22;5824;49.336;8.652;2024-03-06T09:19:21;10.60;1.00
11536;DHT22;5824;49.336;8.652;2024-03-06T09:21:47;10.60;1.00
11536;DHT22;5824;49.336;8.652;2024-03-06T09:24:13;10.90;1.00
11536;DHT22;5824;49.336;8.652;2024-03-06T09:26:39;11.00;1.00
11536;DHT22;5824;49.336;8.652;2024-03-06T09:29:05;11.10;1.00
11536;DHT22;5824;49.336;8.652;2024-03-06T09:31:30;11.30;1.00
11536;DHT22;5824;49.336;8.652;2024-03-06T09:33:56;11.40;1.00
11536;DHT22;5824;49.336;8.652;2024-03-06T09:36:21;11.50;1.00
11536;DHT22;5824;49.336;8.652;2024-03-06T09:38:47;11.70;1.00
11536;DHT22;5824;49.336;8.652;2024-03-06T09:41:13;11.70;1.00
11536;DHT22;5824;49.336;8.652;2024-03-06T09:43:38;11.80;1.00
11536;DHT22;5824;49.336;8.652;2024-03-06T09:46:06;11.90;1.00
11536;DHT22;5824;49.336;8.652;2024-03-06T09:48:33;12.00;1.00
11536;DHT22;5824;49.336;8.652;2024-03-06T09:51:01;12.20;1.00
11536;DHT22;5824;49.336;8.652;2024-03-06T09:53:30;12.50;1.00
11536;DHT22;5824;49.336;8.652;2024-03-06T09:55:56;13.00;1.00
11536;DHT22;5824;49.336;8.652;2024-03-06T09:58:23;13.30;1.00
11536;DHT22;5824;49.336;8.652;2024-03-06T10:00:50;13.70;1.00
11536;DHT22;5824;49.336;8.652;2024-03-06T10:03:16;14.00;1.00
11536;DHT22;5824;49.336;8.652;2024-03-06T10:05:42;14.10;1.00
11536;DHT22;5824;49.336;8.652;2024-03-06T10:08:08;14.40;1.00
11536;DHT22;5824;49.336;8.652;2024-03-06T10:10:35;14.80;1.00
11536;DHT22;5824;49.336;8.652;2024-03-06T10:13:02;15.20;1.00
11536;DHT22;5824;49.336;8.652;2024-03-06T10:15:27;15.30;1.00
11536;DHT22;5824;49.336;8.652;2024-03-06T10:18:29;15.60;1.00
11536;DHT22;5824;49.336;8.652;2024-03-06T10:20:56;15.70;1.00
11536;DHT22;5824;49.336;8.652;2024-03-06T10:23:22;15.50;1.00
11536;DHT22;5824;49.336;8.652;2024-03-06T10:28:21;14.60;1.00
11536;DHT22;5824;49.336;8.652;2024-03-06T10:30:51;14.20;1.00
11536;DHT22;5824;49.336;8.652;2024-03-06T10:33:18;13.80;1.00
11536;DHT22;5824;49.336;8.652;2024-03-06T10:35:45;13.60;1.00
11536;DHT22;5824;49.336;8.652;2024-03-06T10:38:12;13.40;1.00
11536;DHT22;5824;49.336;8.652;2024-03-06T10:40:39;13.20;1.00
11536;DHT22;5824;49.336;8.652;2024-03-06T10:43:07;12.90;1.00
11536;DHT22;5824;49.336;8.652;2024-03-06T10:45:42;12.90;1.00
11536;DHT22;5824;49.336;8.652;2024-03-06T10:48:13;12.90;1.00
11536;DHT22;5824;49.336;8.652;2024-03-06T10:50:40;13.00;1.00
11536;DHT22;5824;49.336;8.652;2024-03-06T10:53:09;13.00;1.00
11536;DHT22;5824;49.336;8.652;2024-03-06T10:55:36;13.10;1.00
11536;DHT22;5824;49.336;8.652;2024-03-06T10:58:04;13.20;1.00
11536;DHT22;5824;49.336;8.652;2024-03-06T11:00:30;13.20;1.00
11536;DHT22;5824;49.336;8.652;2024-03-06T11:02:57;13.60;1.00
11536;DHT22;5824;49.336;8.652;2024-03-06T11:05:24;14.00;1.00
11536;DHT22;5824;49.336;8.652;2024-03-06T11:07:50;14.30;1.00
11536;DHT22;5824;49.336;8.652;2024-03-06T11:10:30;14.40;1.00
11536;DHT22;5824;49.336;8.652;2024-03-06T11:12:56;14.20;1.00
11536;DHT22;5824;49.336;8.652;2024-03-06T11:15:21;14.20;1.00
11536;DHT22;5824;49.336;8.652;2024-03-06T11:17:47;14.30;1.00
11536;DHT22;5824;49.336;8.652;2024-03-06T11:20:18;14.80;1.00
11536;DHT22;5824;49.336;8.652;2024-03-06T11:28:21;15.30;1.00
11536;DHT22;5824;49.336;8.652;2024-03-06T11:36:20;15.50;1.00
11536;DHT22;5824;49.336;8.652;2024-03-06T11:39:08;15.30;1.00
11536;DHT22;5824;49.336;8.652;2024-03-06T11:44:21;15.80;1.00
11536;DHT22;5824;49.336;8.652;2024-03-06T11:47:02;15.90;1.00
11536;DHT22;5824;49.336;8.652;2024-03-06T11:49:30;16.10;1.00
11536;DHT22;5824;49.336;8.652;2024-03-06T11:52:03;15.80;1.00
11536;DHT22;5824;49.336;8.652;2024-03-06T11:54:31;15.70;1.00
11536;DHT22;5824;49.336;8.652;2024-03-06T11:56:59;16.10;1.00
11536;DHT22;5824;49.336;8.652;2024-03-06T11:59:25;16.40;1.00
11536;DHT22;5824;49.336;8.652;2024-03-06T12:01:52;16.70;1.00
11536;DHT22;5824;49.336;8.652;2024-03-06T12:04:19;16.50;1.00
11536;DHT22;5824;49.336;8.652;2024-03-06T12:06:46;16.10;1.00
11536;DHT22;5824;49.336;8.652;2024-03-06T12:09:12;15.70;1.00
11536;DHT22;5824;49.336;8.652;2024-03-06T12:11:38;15.50;1.00
11536;DHT22;5824;49.336;8.652;2024-03-06T12:14:03;15.30;1.00
11536;DHT22;5824;49.336;8.652;2024-03-06T12:16:29;15.30;1.00
11536;DHT22;5824;49.336;8.652;2024-03-06T12:18:58;15.00;1.00
11536;DHT22;5824;49.336;8.652;2024-03-06T12:21:34;14.90;1.00
11536;DHT22;5824;49.336;8.652;2024-03-06T12:24:06;14.50;1.00
11536;DHT22;5824;49.336;8.652;2024-03-06T12:26:32;14.50;1.00
11536;DHT22;5824;49.336;8.652;2024-03-06T12:29:08;14.40;1.00
11536;DHT22;5824;49.336;8.652;2024-03-06T12:31:35;14.20;1.00
11536;DHT22;5824;49.336;8.652;2024-03-06T12:34:02;13.80;1.00
11536;DHT22;5824;49.336;8.652;2024-03-06T12:36:28;13.70;1.00
11536;DHT22;5824;49.336;8.652;2024-03-06T12:38:55;13.60;1.00
11536;DHT22;5824;49.336;8.652;2024-03-06T12:41:21;13.40;1.00
11536;DHT22;5824;49.336;8.652;2024-03-06T12:43:47;13.30;1.00
11536;DHT22;5824;49.336;8.652;2024-03-06T12:46:13;12.90;1.00
11536;DHT22;5824;49.336;8.652;2024-03-06T12:48:38;12.80;1.00
11536;DHT22;5824;49.336;8.652;2024-03-06T12:51:04;12.90;1.00
11536;DHT22;5824;49.336;8.652;2024-03-06T12:53:32;12.90;1.00
11536;DHT22;5824;49.336;8.652;2024-03-06T12:56:00;12.90;1.00
11536;DHT22;5824;49.336;8.652;2024-03-06T12:58:26;12.90;1.00
11536;DHT22;5824;49.336;8.652;2024-03-06T13:00:51;12.70;1.00
11536;DHT22;5824;49.336;8.652;2024-03-06T13:03:17;12.70;1.00
11536;DHT22;5824;49.336;8.652;2024-03-06T13:05:43;12.70;1.00
11536;DHT22;5824;49.336;8.652;2024-03-06T13:08:10;12.70;1.00
11536;DHT22;5824;49.336;8.652;2024-03-06T13:10:39;12.60;1.00
11536;DHT22;5824;49.336;8.652;2024-03-06T13:13:05;12.50;1.00
11536;DHT22;5824;49.336;8.652;2024-03-06T13:15:32;12.50;1.00
11536;DHT22;5824;49.336;8.652;2024-03-06T13:17:59;12.50;1.00
11536;DHT22;5824;49.336;8.652;2024-03-06T13:20:29;12.50;1.00
11536;DHT22;5824;49.336;8.652;2024-03-06T13:22:54;12.50;1.00
11536;DHT22;5824;49.336;8.652;2024-03-06T13:25:20;12.50;1.00
11536;DHT22;5824;49.336;8.652;2024-03-06T13:27:45;12.50;1.00
11536;DHT22;5824;49.336;8.652;2024-03-06T13:30:11;12.40;1.00
11536;DHT22;5824;49.336;8.652;2024-03-06T13:32:37;12.30;1.00
11536;DHT22;5824;49.336;8.652;2024-03-06T13:35:03;12.30;1.00
11536;DHT22;5824;49.336;8.652;2024-03-06T13:37:32;12.40;1.00
11536;DHT22;5824;49.336;8.652;2024-03-06T13:39:57;12.30;1.00
11536;DHT22;5824;49.336;8.652;2024-03-06T13:42:27;12.30;1.00
11536;DHT22;5824;49.336;8.652;2024-03-06T13:44:52;12.20;1.00
11536;DHT22;5824;49.336;8.652;2024-03-06T13:47:19;12.20;1.00
11536;DHT22;5824;49.336;8.652;2024-03-06T13:49:44;12.30;1.00
11536;DHT22;5824;49.336;8.652;2024-03-06T13:52:10;12.30;1.00
11536;DHT22;5824;49.336;8.652;2024-03-06T13:54:40;12.30;1.00
11536;DHT22;5824;49.336;8.652;2024-03-06T13:57:07;12.20;1.00
11536;DHT22;5824;49.336;8.652;2024-03-06T13:59:33;12.10;1.00
11536;DHT22;5824;49.336;8.652;2024-03-06T14:02:00;12.10;1.00
11536;DHT22;5824;49.336;8.652;2024-03-06T14:04:26;12.10;1.00
11536;DHT22;5824;49.336;8.652;2024-03-06T14:06:52;12.10;1.00
11536;DHT22;5824;49.336;8.652;2024-03-06T14:09:17;12.20;1.00
11536;DHT22;5824;49.336;8.652;2024-03-06T14:11:43;12.20;1.00
11536;DHT22;5824;49.336;8.652;2024-03-06T14:14:09;12.30;1.00
11536;DHT22;5824;49.336;8.652;2024-03-06T14:16:35;12.30;1.00
11536;DHT22;5824;49.336;8.652;2024-03-06T14:19:01;12.30;1.00
11536;DHT22;5824;49.336;8.652;2024-03-06T14:21:26;12.40;1.00
11536;DHT22;5824;49.336;8.652;2024-03-06T14:23:52;12.40;1.00
11536;DHT22;5824;49.336;8.652;2024-03-06T14:26:18;12.40;1.00
11536;DHT22;5824;49.336;8.652;2024-03-06T14:28:43;12.30;1.00
11536;DHT22;5824;49.336;8.652;2024-03-06T14:31:09;12.20;1.00
11536;DHT22;5824;49.336;8.652;2024-03-06T14:33:39;12.10;1.00
11536;DHT22;5824;49.336;8.652;2024-03-06T14:36:05;12.00;1.00
11536;DHT22;5824;49.336;8.652;2024-03-06T14:38:30;12.10;1.00
11536;DHT22;5824;49.336;8.652;2024-03-06T14:40:56;12.00;1.00
11536;DHT22;5824;49.336;8.652;2024-03-06T14:43:21;11.90;1.00
11536;DHT22;5824;49.336;8.652;2024-03-06T14:45:47;12.00;1.00
11536;DHT22;5824;49.336;8.652;2024-03-06T14:48:12;12.00;1.00
11536;DHT22;5824;49.336;8.652;2024-03-06T14:50:38;12.00;1.00
11536;DHT22;5824;49.336;8.652;2024-03-06T14:53:03;12.00;1.00
11536;DHT22;5824;49.336;8.652;2024-03-06T14:55:30;11.90;1.00
11536;DHT22;5824;49.336;8.652;2024-03-06T14:57:56;11.90;1.00
11536;DHT22;5824;49.336;8.652;2024-03-06T15:00:21;11.80;1.00
11536;DHT22;5824;49.336;8.652;2024-03-06T15:02:48;11.80;1.00
11536;DHT22;5824;49.336;8.652;2024-03-06T15:05:13;11.70;1.00
11536;DHT22;5824;49.336;8.652;2024-03-06T15:07:39;11.70;1.00
11536;DHT22;5824;49.336;8.652;2024-03-06T15:10:06;11.60;1.00
11536;DHT22;5824;49.336;8.652;2024-03-06T15:12:31;11.50;1.00
11536;DHT22;5824;49.336;8.652;2024-03-06T15:14:57;11.30;1.00
11536;DHT22;5824;49.336;8.652;2024-03-06T15:17:24;11.20;1.00
11536;DHT22;5824;49.336;8.652;2024-03-06T15:19:51;11.20;1.00
11536;DHT22;5824;49.336;8.652;2024-03-06T15:22:17;11.10;1.00
11536;DHT22;5824;49.336;8.652;2024-03-06T15:24:42;11.20;1.00
11536;DHT22;5824;49.336;8.652;2024-03-06T15:27:10;11.30;1.00
11536;DHT22;5824;49.336;8.652;2024-03-06T15:29:35;11.30;1.00
11536;DHT22;5824;49.336;8.652;2024-03-06T15:32:01;11.30;1.00
11536;DHT22;5824;49.336;8.652;2024-03-06T15:34:27;11.30;1.00
11536;DHT22;5824;49.336;8.652;2024-03-06T15:36:52;11.20;1.00
11536;DHT22;5824;49.336;8.652;2024-03-06T15:39:18;11.20;1.00
11536;DHT22;5824;49.336;8.652;2024-03-06T15:41:43;11.10;1.00
11536;DHT22;5824;49.336;8.652;2024-03-06T15:44:09;10.90;1.00
11536;DHT22;5824;49.336;8.652;2024-03-06T15:46:34;10.90;1.00
11536;DHT22;5824;49.336;8.652;2024-03-06T15:49:06;10.90;1.00
11536;DHT22;5824;49.336;8.652;2024-03-06T15:51:43;10.80;1.00
11536;DHT22;5824;49.336;8.652;2024-03-06T15:54:08;10.80;1.00
11536;DHT22;5824;49.336;8.652;2024-03-06T15:56:34;10.80;1.00
11536;DHT22;5824;49.336;8.652;2024-03-06T15:58:59;10.80;1.00
11536;DHT22;5824;49.336;8.652;2024-03-06T16:01:25;10.80;1.00
11536;DHT22;5824;49.336;8.652;2024-03-06T16:03:50;10.80;1.00
11536;DHT22;5824;49.336;8.652;2024-03-06T16:06:18;10.80;1.00
11536;DHT22;5824;49.336;8.652;2024-03-06T16:08:43;10.80;1.00
11536;DHT22;5824;49.336;8.652;2024-03-06T16:11:08;10.80;1.00
11536;DHT22;5824;49.336;8.652;2024-03-06T16:13:34;10.80;1.00
11536;DHT22;5824;49.336;8.652;2024-03-06T16:16:01;10.80;1.00
11536;DHT22;5824;49.336;8.652;2024-03-06T16:18:26;10.80;1.00
11536;DHT22;5824;49.336;8.652;2024-03-06T16:20:52;10.90;1.00
11536;DHT22;5824;49.336;8.652;2024-03-06T16:23:17;10.90;1.00
11536;DHT22;5824;49.336;8.652;2024-03-06T16:25:43;10.90;1.00
11536;DHT22;5824;49.336;8.652;2024-03-06T16:28:09;10.90;1.00
11536;DHT22;5824;49.336;8.652;2024-03-06T16:30:34;10.80;1.00